Time;durP1;ratioP1;P1;durP2;ratioP2;P2;SDS_P1;SDS_P2;PMS_P1;PMS_P2;Temp;Humidity;BMP_temperature;BMP_pressure;BME280_temperature;BME280_humidity;BME280_pressure;Samples;Min_cycle;Max_cycle;Signal;HPM_P1;HPM_P2
2021/01/19 00:00:07;;;;;;;4.82;2.10;;;2.60;99.90;;;;;;5014644;28;20243;-80
2021/01/19 00:02:33;;;;;;;2.65;2.33;;;2.60;99.90;;;;;;5018286;28;20226;-80
2021/01/19 00:05:01;;;;;;;3.95;2.40;;;2.60;99.90;;;;;;5027965;28;20235;-79
2021/01/19 00:07:28;;;;;;;2.65;2.40;;;2.60;99.90;;;;;;5021309;28;20681;-82
2021/01/19 00:09:54;;;;;;;5.22;2.33;;;2.60;99.90;;;;;;4995985;28;20218;-80
2021/01/19 00:12:20;;;;;;;3.35;2.35;;;2.60;99.90;;;;;;5014083;28;20298;-80
2021/01/19 00:14:47;;;;;;;3.10;1.48;;;2.60;99.90;;;;;;5021203;28;20230;-79
2021/01/19 00:17:13;;;;;;;1.85;1.70;;;2.60;99.90;;;;;;5031021;28;20242;-80
2021/01/19 00:19:40;;;;;;;2.50;2.30;;;2.60;99.90;;;;;;5025007;28;20272;-82
2021/01/19 00:22:07;;;;;;;3.58;2.33;;;2.60;99.90;;;;;;5014995;28;20611;-80
2021/01/19 00:24:33;;;;;;;4.82;1.92;;;2.60;99.90;;;;;;5014456;28;20208;-81
2021/01/19 00:27:01;;;;;;;1.80;1.65;;;2.50;99.90;;;;;;5013873;28;20298;-80
2021/01/19 00:29:27;;;;;;;9.77;2.05;;;2.60;99.90;;;;;;5013133;28;20210;-82
2021/01/19 00:31:54;;;;;;;4.95;1.60;;;2.60;99.90;;;;;;5011471;28;20217;-81
2021/01/19 00:34:20;;;;;;;1.70;1.55;;;2.60;99.90;;;;;;5013725;28;20207;-86
2021/01/19 00:36:47;;;;;;;3.08;2.33;;;2.60;99.90;;;;;;5011623;28;20266;-82
2021/01/19 00:39:17;;;;;;;3.35;1.83;;;2.50;99.90;;;;;;5013258;28;20294;-82
2021/01/19 00:41:43;;;;;;;2.78;1.80;;;2.50;99.90;;;;;;5013727;28;20207;-82
2021/01/19 00:44:10;;;;;;;3.67;2.42;;;2.40;99.90;;;;;;5014460;28;20208;-80
2021/01/19 00:46:37;;;;;;;3.67;1.80;;;2.50;99.90;;;;;;5011977;28;20291;-82
2021/01/19 00:49:03;;;;;;;2.67;2.20;;;2.50;99.90;;;;;;5013165;28;20727;-81
2021/01/19 00:51:34;;;;;;;2.22;2.03;;;2.50;99.90;;;;;;5012772;28;20243;-86
2021/01/19 00:54:00;;;;;;;3.22;1.85;;;2.50;99.90;;;;;;5013024;28;20555;-83
2021/01/19 00:56:36;;;;;;;1.77;1.38;;;2.60;99.90;;;;;;4996519;28;20322;-82
2021/01/19 00:59:02;;;;;;;1.60;1.50;;;2.50;99.90;;;;;;5013079;28;20211;-80
2021/01/19 01:01:29;;;;;;;2.38;1.60;;;2.50;99.90;;;;;;5012047;28;20220;-83
2021/01/19 01:03:55;;;;;;;4.63;2.63;;;2.50;99.90;;;;;;5013130;28;20302;-83
2021/01/19 01:06:22;;;;;;;1.42;1.30;;;2.50;99.90;;;;;;5013243;28;20203;-81
2021/01/19 01:08:48;;;;;;;3.00;1.67;;;2.60;99.90;;;;;;5017528;28;20678;-88
2021/01/19 01:11:17;;;;;;;2.67;1.60;;;2.60;99.90;;;;;;5017279;28;20286;-88
2021/01/19 01:13:44;;;;;;;2.40;1.58;;;2.60;99.90;;;;;;5017270;28;20326;-84
2021/01/19 01:16:11;;;;;;;1.58;1.48;;;2.60;99.90;;;;;;5016871;28;20243;-82
2021/01/19 01:18:38;;;;;;;2.40;1.50;;;2.50;99.90;;;;;;5015823;28;20298;-81
2021/01/19 01:21:04;;;;;;;3.05;1.70;;;2.50;99.90;;;;;;5016314;28;20218;-81
2021/01/19 01:23:31;;;;;;;8.52;2.47;;;2.50;99.90;;;;;;5016256;28;20305;-82
2021/01/19 01:25:57;;;;;;;3.10;2.20;;;2.40;99.90;;;;;;5016587;28;20380;-81
2021/01/19 01:28:24;;;;;;;3.97;1.42;;;2.40;99.90;;;;;;5017126;28;20239;-83
2021/01/19 01:30:51;;;;;;;3.17;2.38;;;2.30;99.90;;;;;;5016070;28;20235;-81
2021/01/19 01:33:17;;;;;;;1.73;1.63;;;2.20;99.90;;;;;;5014980;28;20239;-85
2021/01/19 01:35:44;;;;;;;3.10;1.98;;;2.20;99.90;;;;;;5016081;28;20662;-80
2021/01/19 01:38:10;;;;;;;2.55;2.10;;;2.20;99.90;;;;;;5015763;28;20690;-80
2021/01/19 01:40:36;;;;;;;2.67;1.75;;;2.10;99.90;;;;;;5016279;28;20261;-81
2021/01/19 01:43:11;;;;;;;2.05;1.95;;;2.10;99.90;;;;;;5016192;28;20290;-81
2021/01/19 01:45:37;;;;;;;2.53;1.58;;;2.10;99.90;;;;;;4997916;28;20214;-87
2021/01/19 01:48:08;;;;;;;2.75;2.15;;;2.10;99.90;;;;;;5014565;28;20203;-82
2021/01/19 01:50:36;;;;;;;1.35;1.25;;;2.00;99.90;;;;;;5016003;28;20203;-83
2021/01/19 01:53:02;;;;;;;2.25;1.60;;;2.00;99.90;;;;;;5015480;28;20319;-80
2021/01/19 01:55:29;;;;;;;3.63;2.13;;;2.00;99.90;;;;;;5015790;28;20285;-82
2021/01/19 01:57:56;;;;;;;5.22;2.10;;;1.90;99.90;;;;;;5016770;28;20218;-81
2021/01/19 02:00:23;;;;;;;2.03;1.83;;;1.90;99.90;;;;;;5015712;28;20298;-83
2021/01/19 02:02:51;;;;;;;2.40;1.67;;;1.80;99.90;;;;;;5014493;28;20341;-87
2021/01/19 02:05:20;;;;;;;1.80;1.67;;;1.80;99.90;;;;;;5015580;28;20208;-83
2021/01/19 02:08:04;;;;;;;2.40;2.20;;;1.70;99.90;;;;;;5015051;28;20211;-82
2021/01/19 02:10:37;;;;;;;2.95;2.75;;;1.60;99.90;;;;;;5015529;28;20207;-82
2021/01/19 02:13:11;;;;;;;2.92;1.90;;;1.60;99.90;;;;;;5015445;28;20207;-82
2021/01/19 02:15:45;;;;;;;2.80;2.50;;;1.60;99.90;;;;;;5015415;28;20261;-80
2021/01/19 02:18:23;;;;;;;2.42;1.98;;;1.40;99.90;;;;;;5009440;28;20290;-81
2021/01/19 02:21:35;;;;;;;2.45;2.25;;;1.40;99.90;;;;;;5015547;28;20203;-86
2021/01/19 02:24:10;;;;;;;4.78;2.80;;;1.30;99.90;;;;;;5015452;28;20205;-83
2021/01/19 02:27:15;;;;;;;2.88;1.55;;;1.30;99.90;;;;;;5015407;28;20211;-83
2021/01/19 02:30:14;;;;;;;2.47;1.90;;;1.20;99.90;;;;;;5000103;28;20618;-81
2021/01/19 02:33:03;;;;;;;2.72;2.22;;;1.20;99.90;;;;;;5013798;28;20203;-80
2021/01/19 02:35:37;;;;;;;7.25;2.00;;;1.10;99.90;;;;;;5014402;28;20231;-80
2021/01/19 02:38:20;;;;;;;1.58;1.48;;;1.10;99.90;;;;;;5014412;28;20604;-80
2021/01/19 02:40:48;;;;;;;3.95;2.05;;;1.10;99.90;;;;;;5015067;28;20294;-84
2021/01/19 02:43:20;;;;;;;2.95;2.38;;;1.00;99.90;;;;;;5014987;28;20269;-86
2021/01/19 02:45:48;;;;;;;3.65;2.00;;;1.10;99.90;;;;;;5014684;28;20211;-83
2021/01/19 02:48:16;;;;;;;3.90;2.85;;;1.10;99.90;;;;;;5013647;28;20207;-81
2021/01/19 02:50:42;;;;;;;2.60;1.85;;;1.00;99.90;;;;;;5014817;28;20330;-81
2021/01/19 02:53:10;;;;;;;2.70;2.15;;;1.00;99.90;;;;;;5014378;28;20779;-79
2021/01/19 02:55:37;;;;;;;2.42;1.63;;;0.90;99.90;;;;;;5014626;28;20238;-80
2021/01/19 02:58:16;;;;;;;2.42;1.65;;;0.90;99.90;;;;;;5014752;28;20290;-84
2021/01/19 03:00:59;;;;;;;2.05;1.80;;;0.90;99.90;;;;;;5014110;28;20727;-82
2021/01/19 03:03:30;;;;;;;2.10;1.85;;;1.00;99.90;;;;;;5013436;28;20286;-82
2021/01/19 03:05:57;;;;;;;1.58;1.48;;;1.10;99.90;;;;;;5014568;28;20242;-81
2021/01/19 03:08:29;;;;;;;2.88;2.63;;;1.10;99.90;;;;;;5014315;28;20290;-83
2021/01/19 03:10:57;;;;;;;5.30;1.98;;;1.10;99.90;;;;;;5014633;28;20647;-81
2021/01/19 03:13:26;;;;;;;2.50;1.80;;;1.20;99.90;;;;;;5014427;28;20238;-81
2021/01/19 03:16:05;;;;;;;2.53;1.80;;;1.20;99.90;;;;;;5014387;28;20232;-86
2021/01/19 03:18:33;;;;;;;2.20;2.00;;;1.20;99.90;;;;;;5013150;28;20705;-81
2021/01/19 03:20:59;;;;;;;3.47;1.75;;;1.20;99.90;;;;;;5014295;28;20294;-83
2021/01/19 03:23:26;;;;;;;2.65;2.20;;;1.20;99.90;;;;;;5013923;28;20200;-82
2021/01/19 03:25:52;;;;;;;1.90;1.65;;;1.20;99.90;;;;;;5014363;28;20286;-80
2021/01/19 03:28:18;;;;;;;2.60;1.75;;;1.20;99.90;;;;;;5014158;28;20273;-80
2021/01/19 03:30:45;;;;;;;3.03;2.30;;;1.20;99.90;;;;;;5013119;28;20203;-81
2021/01/19 03:33:11;;;;;;;5.95;2.65;;;1.20;99.90;;;;;;5012955;28;20234;-87
2021/01/19 03:35:39;;;;;;;3.83;1.95;;;1.30;99.90;;;;;;5013953;28;20235;-82
2021/01/19 03:38:05;;;;;;;4.30;2.00;;;1.30;99.90;;;;;;5013928;28;20249;-81
2021/01/19 03:40:32;;;;;;;1.50;1.40;;;1.30;99.90;;;;;;5014073;28;20210;-81
2021/01/19 03:42:59;;;;;;;5.28;2.25;;;1.30;99.90;;;;;;5014016;28;20726;-81
2021/01/19 03:45:26;;;;;;;1.67;1.58;;;1.40;99.90;;;;;;5013902;28;20203;-82
2021/01/19 03:47:53;;;;;;;2.92;1.80;;;1.50;99.90;;;;;;5012687;28;20628;-80
2021/01/19 03:50:19;;;;;;;2.00;1.88;;;1.50;99.90;;;;;;5013897;28;20286;-81
2021/01/19 03:52:46;;;;;;;5.25;2.58;;;1.50;99.90;;;;;;5013616;28;20299;-84
2021/01/19 03:55:13;;;;;;;3.25;1.90;;;1.50;99.90;;;;;;5013691;28;20203;-84
2021/01/19 03:57:40;;;;;;;2.72;2.00;;;1.50;99.90;;;;;;5013851;28;20294;-80
2021/01/19 04:00:08;;;;;;;4.53;1.63;;;1.50;99.90;;;;;;5013471;28;20211;-81
2021/01/19 04:02:34;;;;;;;1.80;1.70;;;1.50;99.90;;;;;;5012510;28;20218;-81
2021/01/19 04:05:01;;;;;;;2.60;2.10;;;1.50;99.90;;;;;;5013615;28;20298;-81
2021/01/19 04:07:27;;;;;;;2.75;1.85;;;1.50;99.90;;;;;;5012568;28;20307;-81
2021/01/19 04:09:54;;;;;;;1.88;1.40;;;1.60;99.90;;;;;;5013751;28;20346;-82
2021/01/19 04:12:21;;;;;;;1.60;1.30;;;1.50;99.90;;;;;;5013549;28;20294;-80
2021/01/19 04:14:47;;;;;;;2.67;2.20;;;1.50;99.90;;;;;;5013691;28;20235;-81
2021/01/19 04:17:14;;;;;;;2.30;1.83;;;1.60;99.90;;;;;;5020546;28;20322;-79
2021/01/19 04:19:40;;;;;;;1.85;1.75;;;1.60;99.90;;;;;;5015085;28;20298;-80
2021/01/19 04:22:06;;;;;;;6.32;2.20;;;1.70;99.90;;;;;;5022396;28;20234;-79
2021/01/19 04:24:33;;;;;;;3.28;1.70;;;1.70;99.90;;;;;;5024970;28;20334;-79
2021/01/19 04:27:00;;;;;;;1.42;1.33;;;1.60;99.90;;;;;;5022733;28;20242;-83
2021/01/19 04:29:26;;;;;;;2.03;1.92;;;1.50;99.90;;;;;;5029802;28;20253;-80
2021/01/19 04:31:53;;;;;;;3.75;3.45;;;1.50;99.90;;;;;;5027075;28;20234;-80
2021/01/19 04:34:19;;;;;;;2.55;1.85;;;1.50;99.90;;;;;;5018514;28;20238;-79
2021/01/19 04:36:45;;;;;;;8.88;2.10;;;1.50;99.90;;;;;;5014552;28;20242;-80
2021/01/19 04:39:12;;;;;;;3.88;1.83;;;1.40;99.90;;;;;;5013792;28;20239;-80
2021/01/19 04:41:40;;;;;;;4.35;2.03;;;1.50;99.90;;;;;;5015119;28;20743;-80
2021/01/19 04:44:09;;;;;;;2.58;2.25;;;1.40;99.90;;;;;;5019870;28;20205;-81
2021/01/19 04:46:36;;;;;;;1.98;1.83;;;1.40;99.90;;;;;;5018758;28;20203;-81
2021/01/19 04:49:04;;;;;;;1.58;1.48;;;1.40;99.90;;;;;;5019864;28;20294;-80
2021/01/19 04:51:34;;;;;;;3.28;1.60;;;1.30;99.90;;;;;;5019419;28;20733;-80
2021/01/19 04:54:04;;;;;;;1.40;1.30;;;1.30;99.90;;;;;;5019449;28;20317;-81
2021/01/19 04:56:31;;;;;;;1.63;1.52;;;1.30;99.90;;;;;;5019850;28;20318;-81
2021/01/19 04:58:58;;;;;;;7.80;1.80;;;1.30;99.90;;;;;;5019542;28;20297;-81
2021/01/19 05:01:39;;;;;;;3.17;1.15;;;1.30;99.90;;;;;;5018545;28;20264;-81
2021/01/19 05:04:33;;;;;;;4.15;1.55;;;1.30;99.90;;;;;;5019882;28;20571;-82
2021/01/19 05:07:26;;;;;;;1.08;0.95;;;1.30;99.90;;;;;;5019178;28;20303;-82
2021/01/19 05:10:04;;;;;;;2.47;1.88;;;1.40;99.90;;;;;;5019382;28;20291;-81
2021/01/19 05:12:38;;;;;;;3.38;1.77;;;1.30;99.90;;;;;;5019495;28;21003;-80
2021/01/19 05:15:08;;;;;;;3.97;2.22;;;1.40;99.90;;;;;;5019534;28;20206;-81
2021/01/19 05:17:35;;;;;;;2.88;2.47;;;1.40;99.90;;;;;;5018013;28;20231;-81
2021/01/19 05:20:03;;;;;;;3.42;2.03;;;1.40;99.90;;;;;;5019474;28;20295;-81
2021/01/19 05:22:29;;;;;;;2.60;1.80;;;1.40;99.90;;;;;;5019355;28;20722;-84
2021/01/19 05:24:56;;;;;;;1.92;1.83;;;1.40;99.90;;;;;;5019528;28;20294;-82
2021/01/19 05:27:22;;;;;;;2.10;1.75;;;1.40;99.90;;;;;;5019307;28;20306;-81
2021/01/19 05:29:57;;;;;;;5.25;2.40;;;1.30;99.90;;;;;;5019118;28;20298;-80
2021/01/19 05:32:34;;;;;;;2.25;1.73;;;1.30;99.90;;;;;;5018031;28;20732;-80
2021/01/19 05:35:20;;;;;;;1.40;1.30;;;1.30;99.90;;;;;;5018860;28;20295;-82
2021/01/19 05:37:57;;;;;;;3.05;2.22;;;1.30;99.90;;;;;;5018925;28;20246;-80
2021/01/19 05:40:23;;;;;;;3.40;2.05;;;1.20;99.90;;;;;;5019319;28;20252;-82
2021/01/19 05:42:50;;;;;;;1.38;1.20;;;1.10;99.90;;;;;;5017723;28;20669;-82
2021/01/19 05:45:17;;;;;;;5.00;2.35;;;1.10;99.90;;;;;;5017178;28;20203;-81
2021/01/19 05:47:44;;;;;;;1.98;1.83;;;1.20;99.90;;;;;;5018868;28;20207;-81
2021/01/19 05:50:12;;;;;;;2.20;2.00;;;1.20;99.90;;;;;;5019013;28;20235;-81
2021/01/19 05:52:40;;;;;;;2.20;1.92;;;1.10;99.90;;;;;;5017834;28;20331;-81
2021/01/19 05:55:09;;;;;;;3.25;1.83;;;1.10;99.90;;;;;;5015576;28;20204;-82
2021/01/19 05:57:36;;;;;;;2.55;2.00;;;1.10;99.90;;;;;;5015775;28;20286;-82
2021/01/19 06:00:05;;;;;;;4.40;2.30;;;1.20;99.90;;;;;;5015745;28;20203;-82
2021/01/19 06:02:38;;;;;;;2.13;1.55;;;1.20;99.90;;;;;;5014721;28;20674;-81
2021/01/19 06:05:10;;;;;;;2.20;2.00;;;1.20;99.90;;;;;;5015743;28;20294;-80
2021/01/19 06:07:39;;;;;;;6.63;2.33;;;1.20;99.90;;;;;;5015493;28;20261;-80
2021/01/19 06:10:10;;;;;;;2.63;1.90;;;1.10;99.90;;;;;;5015688;28;20250;-81
2021/01/19 06:12:36;;;;;;;4.13;2.97;;;1.10;99.90;;;;;;5015843;28;20627;-81
2021/01/19 06:15:04;;;;;;;2.10;1.70;;;1.10;99.90;;;;;;5015726;28;20210;-88
2021/01/19 06:17:30;;;;;;;6.10;2.17;;;1.10;99.90;;;;;;5014368;28;20253;-82
2021/01/19 06:19:59;;;;;;;4.88;2.25;;;1.10;99.90;;;;;;5015511;28;20231;-81
2021/01/19 06:22:26;;;;;;;8.52;2.72;;;1.10;99.90;;;;;;5015450;28;20295;-80
2021/01/19 06:24:55;;;;;;;5.32;2.63;;;1.10;99.90;;;;;;5014884;28;20293;-81
2021/01/19 06:27:29;;;;;;;3.75;2.50;;;1.10;99.90;;;;;;5015352;28;20290;-80
2021/01/19 06:30:08;;;;;;;6.20;2.85;;;1.10;99.90;;;;;;4997290;28;20286;-81
2021/01/19 06:32:36;;;;;;;2.13;1.90;;;1.00;99.90;;;;;;5014295;28;20226;-85
2021/01/19 06:35:11;;;;;;;2.45;1.70;;;1.00;99.90;;;;;;5015502;28;20295;-81
2021/01/19 06:37:38;;;;;;;2.70;1.80;;;1.00;99.90;;;;;;5014751;28;20316;-81
2021/01/19 06:40:08;;;;;;;2.95;2.75;;;1.10;99.90;;;;;;4997212;28;20232;-81
2021/01/19 06:42:35;;;;;;;3.80;2.47;;;1.00;99.90;;;;;;5015256;28;20749;-81
2021/01/19 06:45:07;;;;;;;2.92;2.60;;;1.00;99.90;;;;;;5015591;28;20208;-81
2021/01/19 06:47:41;;;;;;;4.43;2.45;;;1.00;99.90;;;;;;5013773;28;20298;-81
2021/01/19 06:50:08;;;;;;;6.22;3.08;;;1.00;99.90;;;;;;5015067;28;20630;-85
2021/01/19 06:52:40;;;;;;;5.63;2.42;;;1.00;99.90;;;;;;5014545;28;20326;-82
2021/01/19 06:55:19;;;;;;;2.92;2.10;;;1.10;99.90;;;;;;5014912;28;20731;-80
2021/01/19 06:58:10;;;;;;;2.17;1.75;;;1.00;99.90;;;;;;5015596;28;20227;-80
2021/01/19 07:00:40;;;;;;;2.85;1.55;;;1.00;99.90;;;;;;4982318;28;20262;-80
2021/01/19 07:03:18;;;;;;;3.97;2.30;;;1.00;99.90;;;;;;5013675;28;20291;-80
2021/01/19 07:05:53;;;;;;;2.83;2.53;;;1.00;99.90;;;;;;5015717;28;20210;-81
2021/01/19 07:08:49;;;;;;;3.22;2.20;;;1.00;99.90;;;;;;4996166;28;20286;-84
2021/01/19 07:11:44;;;;;;;3.13;1.80;;;1.00;99.90;;;;;;5014581;28;20242;-80
2021/01/19 07:14:12;;;;;;;3.97;3.15;;;0.90;99.90;;;;;;5004188;28;20674;-81
2021/01/19 07:16:50;;;;;;;2.70;2.50;;;0.90;99.90;;;;;;5013150;28;20241;-80
2021/01/19 07:19:19;;;;;;;2.22;2.03;;;0.90;99.90;;;;;;5014573;28;20204;-80
2021/01/19 07:22:33;;;;;;;3.10;2.80;;;0.90;99.90;;;;;;5014355;28;20203;-81
2021/01/19 07:25:00;;;;;;;3.10;2.80;;;0.90;99.90;;;;;;4964470;28;20204;-84
2021/01/19 07:27:30;;;;;;;2.80;2.33;;;0.80;99.90;;;;;;5014549;28;20727;-80
2021/01/19 07:29:57;;;;;;;2.90;2.70;;;0.80;99.90;;;;;;5014383;28;20235;-80
2021/01/19 07:32:26;;;;;;;2.55;2.25;;;0.80;99.90;;;;;;5013097;28;20209;-81
2021/01/19 07:34:53;;;;;;;6.35;1.98;;;0.80;99.90;;;;;;5013679;28;20294;-80
2021/01/19 07:37:29;;;;;;;2.83;1.80;;;0.90;99.90;;;;;;5014899;28;20235;-78
2021/01/19 07:39:55;;;;;;;4.75;2.00;;;1.00;99.90;;;;;;5014223;28;20230;-80
2021/01/19 07:42:22;;;;;;;4.25;2.28;;;1.10;99.90;;;;;;5014345;28;20682;-83
2021/01/19 07:44:57;;;;;;;3.35;2.35;;;1.10;99.90;;;;;;5014334;28;20214;-80
2021/01/19 07:47:36;;;;;;;5.95;3.08;;;1.20;99.90;;;;;;5013047;28;20262;-81
2021/01/19 07:50:05;;;;;;;3.38;1.88;;;1.10;99.90;;;;;;5014064;28;20230;-81
2021/01/19 07:52:37;;;;;;;2.20;2.00;;;1.20;99.90;;;;;;5013428;28;20757;-79
2021/01/19 07:55:21;;;;;;;3.85;1.92;;;1.20;99.90;;;;;;5013856;28;20212;-80
2021/01/19 07:57:49;;;;;;;2.75;2.22;;;1.30;99.90;;;;;;4979159;28;20238;-81
2021/01/19 08:00:22;;;;;;;5.53;2.20;;;1.30;99.90;;;;;;5013743;28;20207;-88
2021/01/19 08:02:49;;;;;;;5.00;3.10;;;1.30;99.90;;;;;;5012568;28;20211;-82
2021/01/19 08:05:15;;;;;;;2.65;2.42;;;1.30;99.90;;;;;;5013339;28;20286;-80
2021/01/19 08:07:45;;;;;;;2.50;2.30;;;1.30;99.90;;;;;;5013466;28;20354;-80
2021/01/19 08:10:19;;;;;;;2.25;1.92;;;1.30;99.90;;;;;;5013633;28;20709;-81
2021/01/19 08:12:48;;;;;;;3.45;2.40;;;1.30;99.90;;;;;;5013295;28;20207;-80
2021/01/19 08:15:22;;;;;;;4.10;1.90;;;1.30;99.90;;;;;;5013614;28;20294;-80
2021/01/19 08:17:52;;;;;;;4.15;3.33;;;1.50;99.90;;;;;;5011735;28;20319;-81
2021/01/19 08:20:30;;;;;;;6.22;3.33;;;1.60;99.90;;;;;;5013448;28;20295;-83
2021/01/19 08:23:10;;;;;;;3.15;2.38;;;1.70;99.90;;;;;;5012882;28;20337;-81
2021/01/19 08:25:36;;;;;;;4.25;2.33;;;1.70;99.90;;;;;;5013613;28;20200;-81
2021/01/19 08:28:03;;;;;;;3.67;2.20;;;1.80;99.90;;;;;;5013377;28;20290;-80
2021/01/19 08:30:31;;;;;;;5.43;2.63;;;2.00;99.90;;;;;;5013180;28;20290;-80
2021/01/19 08:32:59;;;;;;;6.07;2.60;;;2.10;99.90;;;;;;5012004;28;20203;-80
2021/01/19 08:35:27;;;;;;;3.15;2.05;;;2.30;99.90;;;;;;5012982;28;20719;-81
2021/01/19 08:37:55;;;;;;;2.97;2.22;;;2.40;99.90;;;;;;5013164;28;20381;-83
2021/01/19 08:40:24;;;;;;;3.75;2.60;;;2.60;99.90;;;;;;5013571;28;20215;-81
2021/01/19 08:42:50;;;;;;;1.90;1.80;;;2.70;99.90;;;;;;5026478;28;20269;-80
2021/01/19 08:45:27;;;;;;;4.50;3.05;;;2.90;99.90;;;;;;5030036;28;20208;-80
2021/01/19 08:47:56;;;;;;;2.33;2.10;;;2.90;99.90;;;;;;5013823;28;20297;-80
2021/01/19 08:50:23;;;;;;;3.47;2.63;;;3.10;99.90;;;;;;5020328;28;20274;-79
2021/01/19 08:52:51;;;;;;;4.20;2.80;;;3.20;99.90;;;;;;5026167;28;20608;-80
2021/01/19 08:55:18;;;;;;;4.82;3.00;;;3.40;99.90;;;;;;5030040;28;20226;-83
2021/01/19 08:57:50;;;;;;;10.18;3.10;;;3.50;99.90;;;;;;5017150;28;20263;-86
2021/01/19 09:00:24;;;;;;;4.25;2.30;;;3.60;99.90;;;;;;5015462;28;20207;-80
2021/01/19 09:02:52;;;;;;;5.55;2.50;;;3.60;99.90;;;;;;5011962;28;20202;-81
2021/01/19 09:05:28;;;;;;;9.43;3.20;;;3.80;99.90;;;;;;5013039;28;20298;-79
2021/01/19 09:07:55;;;;;;;4.30;3.42;;;3.80;99.90;;;;;;5019824;28;20283;-79
2021/01/19 09:10:27;;;;;;;3.65;2.78;;;3.70;99.90;;;;;;5014433;28;20207;-80
2021/01/19 09:12:55;;;;;;;1.85;1.55;;;3.60;99.90;;;;;;5016720;28;20291;-85
2021/01/19 09:15:22;;;;;;;1.58;1.48;;;3.60;99.90;;;;;;5014681;28;20294;-80
2021/01/19 09:17:54;;;;;;;3.40;2.10;;;3.70;99.90;;;;;;4992974;28;20766;-79
2021/01/19 09:20:20;;;;;;;4.45;2.53;;;3.70;99.90;;;;;;5012504;28;20298;-80
2021/01/19 09:22:48;;;;;;;3.88;2.55;;;3.70;99.90;;;;;;4993963;28;20229;-82
2021/01/19 09:25:14;;;;;;;3.03;2.10;;;3.70;99.90;;;;;;5012821;28;20238;-81
2021/01/19 09:27:41;;;;;;;5.38;2.03;;;3.60;99.90;;;;;;5012621;28;20606;-79
2021/01/19 09:30:10;;;;;;;2.97;2.67;;;3.70;99.90;;;;;;5015925;28;20353;-80
2021/01/19 09:32:38;;;;;;;4.47;3.00;;;3.60;99.90;;;;;;5014248;28;20207;-81
2021/01/19 09:35:05;;;;;;;4.22;2.35;;;3.60;99.90;;;;;;5016153;28;20206;-83
2021/01/19 09:37:31;;;;;;;2.83;2.15;;;3.60;99.90;;;;;;5016596;28;20326;-80
2021/01/19 09:39:59;;;;;;;2.63;2.33;;;3.60;99.90;;;;;;5016940;28;20326;-79
2021/01/19 09:42:25;;;;;;;6.25;2.22;;;3.60;99.90;;;;;;5017117;28;20612;-81
2021/01/19 09:44:52;;;;;;;1.92;1.83;;;3.50;99.90;;;;;;5017577;28;20294;-82
2021/01/19 09:47:24;;;;;;;3.55;2.83;;;3.50;99.90;;;;;;5015749;28;20260;-81
2021/01/19 09:49:52;;;;;;;5.60;3.17;;;3.60;99.90;;;;;;5018402;28;20267;-84
2021/01/19 09:52:20;;;;;;;3.20;2.40;;;3.60;99.90;;;;;;5017573;28;20231;-82
2021/01/19 09:54:46;;;;;;;2.55;2.35;;;3.50;99.90;;;;;;5015425;28;20215;-82
2021/01/19 09:57:13;;;;;;;4.57;2.97;;;3.70;99.90;;;;;;5016023;28;20324;-82
2021/01/19 09:59:41;;;;;;;4.43;2.95;;;3.80;99.90;;;;;;5015846;28;20203;-81
2021/01/19 10:02:08;;;;;;;3.95;2.95;;;3.90;99.90;;;;;;5014042;28;20294;-82
2021/01/19 10:04:35;;;;;;;2.95;2.63;;;4.00;99.90;;;;;;5015722;28;20217;-84
2021/01/19 10:07:02;;;;;;;4.22;2.78;;;3.90;99.90;;;;;;5015814;28;20295;-88
2021/01/19 10:09:29;;;;;;;3.35;2.20;;;3.90;99.90;;;;;;5015995;28;20302;-81
2021/01/19 10:11:57;;;;;;;3.08;2.40;;;3.90;99.90;;;;;;5015877;28;20286;-79
2021/01/19 10:14:31;;;;;;;2.40;2.25;;;4.00;99.90;;;;;;5016061;28;20235;-84
2021/01/19 10:16:58;;;;;;;4.28;2.22;;;4.10;99.90;;;;;;5014542;28;20234;-88
2021/01/19 10:19:26;;;;;;;2.03;1.80;;;4.10;99.90;;;;;;5015853;28;20200;-89
2021/01/19 10:21:54;;;;;;;2.50;2.20;;;4.20;99.90;;;;;;5020213;28;20271;-84
2021/01/19 10:24:21;;;;;;;3.17;2.08;;;4.10;99.90;;;;;;5016525;28;20199;-85
2021/01/19 10:26:59;;;;;;;4.18;3.08;;;4.10;99.90;;;;;;5016807;28;20725;-86
2021/01/19 10:29:28;;;;;;;3.90;1.90;;;4.20;99.90;;;;;;5015786;28;20598;-85
2021/01/19 10:31:59;;;;;;;2.97;2.45;;;3.90;99.90;;;;;;5014301;28;20242;-81
2021/01/19 10:34:27;;;;;;;4.10;2.28;;;4.00;99.90;;;;;;5015233;28;20257;-84
2021/01/19 10:36:55;;;;;;;3.72;2.33;;;4.00;99.90;;;;;;5015065;28;20246;-83
2021/01/19 10:39:22;;;;;;;2.92;2.70;;;4.00;99.90;;;;;;5014692;28;20219;-82
2021/01/19 10:41:49;;;;;;;2.65;2.45;;;4.00;99.90;;;;;;5015252;28;20677;-81
2021/01/19 10:44:16;;;;;;;5.03;2.78;;;3.90;99.90;;;;;;5015460;28;20215;-86
2021/01/19 10:46:44;;;;;;;3.55;3.10;;;3.90;99.90;;;;;;5013660;28;20678;-79
2021/01/19 10:49:12;;;;;;;3.67;2.90;;;3.90;99.90;;;;;;5015377;28;20210;-81
2021/01/19 10:51:41;;;;;;;5.93;2.83;;;3.90;99.90;;;;;;5014990;28;20294;-82
2021/01/19 10:54:12;;;;;;;3.33;3.00;;;3.80;99.90;;;;;;5014487;28;20246;-80
2021/01/19 10:56:41;;;;;;;7.00;3.80;;;3.80;99.90;;;;;;5014134;28;20466;-81
2021/01/19 10:59:07;;;;;;;5.63;3.15;;;3.90;99.90;;;;;;5011354;28;20726;-87
2021/01/19 11:01:34;;;;;;;5.68;3.10;;;3.90;99.90;;;;;;5013306;28;20730;-85
2021/01/19 11:04:03;;;;;;;4.28;3.53;;;4.00;99.90;;;;;;5014077;28;20211;-83
2021/01/19 11:06:34;;;;;;;6.35;3.50;;;4.00;99.90;;;;;;5014835;28;20298;-80
2021/01/19 11:09:01;;;;;;;3.65;2.63;;;4.00;99.90;;;;;;5014682;28;20206;-80
2021/01/19 11:11:28;;;;;;;2.63;2.45;;;3.90;99.90;;;;;;5014932;28;20257;-79
2021/01/19 11:13:59;;;;;;;3.53;3.13;;;3.90;99.90;;;;;;5013985;28;20283;-79
2021/01/19 11:16:30;;;;;;;3.85;2.40;;;3.90;99.90;;;;;;5012696;28;20259;-79
2021/01/19 11:19:00;;;;;;;3.75;2.50;;;3.90;99.90;;;;;;5013978;28;20207;-86
2021/01/19 11:21:28;;;;;;;3.17;2.80;;;4.10;99.90;;;;;;5015332;28;20215;-84
2021/01/19 11:23:55;;;;;;;8.15;3.38;;;4.20;99.90;;;;;;5013425;28;20204;-80
2021/01/19 11:26:22;;;;;;;3.35;2.60;;;4.00;99.90;;;;;;5013820;28;20211;-79
2021/01/19 11:28:48;;;;;;;3.22;2.65;;;4.00;99.90;;;;;;5013410;28;20594;-80
2021/01/19 11:31:19;;;;;;;3.00;2.70;;;4.10;99.90;;;;;;5013916;28;20298;-79
2021/01/19 11:33:46;;;;;;;5.88;3.00;;;4.10;99.90;;;;;;5013443;28;20640;-85
2021/01/19 11:36:18;;;;;;;14.30;3.33;;;4.10;99.90;;;;;;5014043;28;20214;-84
2021/01/19 11:38:45;;;;;;;4.60;3.15;;;4.20;99.90;;;;;;5014149;28;20322;-83
2021/01/19 11:41:15;;;;;;;5.35;3.03;;;4.10;99.90;;;;;;5014087;28;20797;-78
2021/01/19 11:43:41;;;;;;;4.32;3.05;;;4.00;99.90;;;;;;5013829;28;20208;-79
2021/01/19 11:46:08;;;;;;;3.00;2.50;;;4.00;99.90;;;;;;5013793;28;20294;-79
2021/01/19 11:48:34;;;;;;;2.63;2.42;;;4.10;99.90;;;;;;5012628;28;20208;-79
2021/01/19 11:51:00;;;;;;;6.40;2.78;;;4.20;99.90;;;;;;5012873;28;20297;-79
2021/01/19 11:53:27;;;;;;;4.65;3.50;;;4.20;99.90;;;;;;5013095;28;20321;-80
2021/01/19 11:55:54;;;;;;;2.53;2.33;;;4.20;99.90;;;;;;5014153;28;20663;-84
2021/01/19 11:58:21;;;;;;;3.42;3.13;;;4.20;99.90;;;;;;5014099;28;20227;-80
2021/01/19 12:00:48;;;;;;;5.20;3.25;;;4.20;99.90;;;;;;5013863;28;20569;-81
2021/01/19 12:03:18;;;;;;;3.60;2.53;;;4.20;99.90;;;;;;5011947;28;20235;-79
2021/01/19 12:05:45;;;;;;;5.78;2.20;;;4.30;99.90;;;;;;5013586;28;20299;-80
2021/01/19 12:08:11;;;;;;;5.95;3.67;;;4.30;99.90;;;;;;5013263;28;20250;-80
2021/01/19 12:10:37;;;;;;;8.40;2.53;;;4.40;99.90;;;;;;5013387;28;20285;-80
2021/01/19 12:13:07;;;;;;;4.88;3.78;;;4.40;99.90;;;;;;5013689;28;20311;-86
2021/01/19 12:15:34;;;;;;;5.18;3.67;;;4.20;99.90;;;;;;5013354;28;20208;-82
2021/01/19 12:18:01;;;;;;;5.45;4.28;;;4.20;99.90;;;;;;5012239;28;20239;-79
2021/01/19 12:20:27;;;;;;;3.80;3.35;;;4.10;99.90;;;;;;5013220;28;20766;-80
2021/01/19 12:22:53;;;;;;;4.63;4.07;;;4.10;99.90;;;;;;5013179;28;20302;-79
2021/01/19 12:25:20;;;;;;;4.15;3.35;;;4.10;99.90;;;;;;5012980;28;20249;-80
2021/01/19 12:27:48;;;;;;;9.73;4.13;;;4.00;99.90;;;;;;5013123;28;20294;-80
2021/01/19 12:30:16;;;;;;;7.30;3.72;;;4.10;99.90;;;;;;5013016;28;20235;-83
2021/01/19 12:32:42;;;;;;;5.82;3.75;;;4.10;99.90;;;;;;5012664;28;20291;-84
2021/01/19 12:35:10;;;;;;;5.22;3.75;;;4.20;99.90;;;;;;5013419;28;20210;-79
2021/01/19 12:37:37;;;;;;;6.35;4.00;;;4.30;99.90;;;;;;5013071;28;20230;-80
2021/01/19 12:40:04;;;;;;;8.82;5.20;;;4.40;99.90;;;;;;5013132;28;20206;-79
2021/01/19 12:42:31;;;;;;;11.90;7.55;;;4.40;99.90;;;;;;5013118;28;20252;-79
2021/01/19 12:44:57;;;;;;;14.40;8.18;;;4.50;99.90;;;;;;5013497;28;20235;-79
2021/01/19 12:47:25;;;;;;;10.48;5.95;;;4.80;99.90;;;;;;5012077;28;20204;-79
2021/01/19 12:49:52;;;;;;;3.58;3.28;;;4.90;99.90;;;;;;5014056;28;20203;-83
2021/01/19 12:52:18;;;;;;;4.85;3.45;;;4.90;99.90;;;;;;5016196;28;20754;-83
2021/01/19 12:54:45;;;;;;;5.13;3.10;;;4.90;99.90;;;;;;5015933;28;20211;-79
2021/01/19 12:57:12;;;;;;;3.25;1.98;;;5.00;99.90;;;;;;5017339;28;20231;-80
2021/01/19 12:59:40;;;;;;;3.00;2.15;;;5.10;99.90;;;;;;5013832;28;20231;-80
2021/01/19 13:02:06;;;;;;;3.15;2.00;;;5.20;99.90;;;;;;5014246;28;20239;-80
2021/01/19 13:04:34;;;;;;;2.33;1.73;;;5.20;99.90;;;;;;5024934;28;20266;-80
2021/01/19 13:07:01;;;;;;;5.93;2.10;;;5.20;99.90;;;;;;5025802;28;20660;-86
2021/01/19 13:09:28;;;;;;;4.35;3.67;;;5.10;99.90;;;;;;5022596;28;20294;-83